sensor_id;sensor_type;location;lat;lon;timestamp;pressure;altitude;pressure_sealevel;temperature;humidity
74881;BME280;63427;49.654;6.596;2022-11-20T00:01:29;99185.94;;;10.39;46.20
74881;BME280;63427;49.654;6.596;2022-11-20T00:03:55;99184.78;;;10.41;46.22
74881;BME280;63427;49.654;6.596;2022-11-20T00:06:20;99188.12;;;10.57;45.73
74881;BME280;63427;49.654;6.596;2022-11-20T00:08:45;99182.97;;;10.39;45.79
74881;BME280;63427;49.654;6.596;2022-11-20T00:11:12;99183.45;;;10.86;45.80
74881;BME280;63427;49.654;6.596;2022-11-20T00:13:36;99178.32;;;10.04;46.51
74881;BME280;63427;49.654;6.596;2022-11-20T00:16:07;99180.49;;;10.52;46.47
74881;BME280;63427;49.654;6.596;2022-11-20T00:18:27;99183.16;;;10.70;46.06
74881;BME280;63427;49.654;6.596;2022-11-20T00:20:52;99181.78;;;10.55;46.12
74881;BME280;63427;49.654;6.596;2022-11-20T00:23:18;99183.43;;;10.69;45.61
74881;BME280;63427;49.654;6.596;2022-11-20T00:25:43;99182.68;;;10.60;46.41
74881;BME280;63427;49.654;6.596;2022-11-20T00:28:09;99184.49;;;10.79;46.17
74881;BME280;63427;49.654;6.596;2022-11-20T00:30:34;99182.99;;;10.86;45.97
74881;BME280;63427;49.654;6.596;2022-11-20T00:33:00;99184.58;;;10.75;46.07
74881;BME280;63427;49.654;6.596;2022-11-20T00:35:26;99179.85;;;11.03;45.33
74881;BME280;63427;49.654;6.596;2022-11-20T00:37:51;99180.42;;;11.02;45.08
74881;BME280;63427;49.654;6.596;2022-11-20T00:40:17;99174.73;;;11.14;45.41
74881;BME280;63427;49.654;6.596;2022-11-20T00:42:42;99178.51;;;10.70;45.77
74881;BME280;63427;49.654;6.596;2022-11-20T00:45:08;99176.72;;;10.43;46.46
74881;BME280;63427;49.654;6.596;2022-11-20T00:47:33;99176.01;;;10.45;46.65
74881;BME280;63427;49.654;6.596;2022-11-20T00:49:59;99175.54;;;10.12;47.36
74881;BME280;63427;49.654;6.596;2022-11-20T00:52:24;99174.19;;;10.26;47.11
74881;BME280;63427;49.654;6.596;2022-11-20T00:54:49;99176.10;;;10.52;46.75
74881;BME280;63427;49.654;6.596;2022-11-20T00:57:14;99175.48;;;10.65;46.37
74881;BME280;63427;49.654;6.596;2022-11-20T00:59:40;99179.07;;;10.38;46.09
74881;BME280;63427;49.654;6.596;2022-11-20T01:02:05;99180.86;;;10.78;46.10
74881;BME280;63427;49.654;6.596;2022-11-20T01:04:31;99185.24;;;10.63;46.42
74881;BME280;63427;49.654;6.596;2022-11-20T01:06:57;99187.61;;;10.68;46.42
74881;BME280;63427;49.654;6.596;2022-11-20T01:09:22;99188.69;;;10.84;46.27
74881;BME280;63427;49.654;6.596;2022-11-20T01:11:48;99188.82;;;10.57;46.38
74881;BME280;63427;49.654;6.596;2022-11-20T01:14:14;99187.16;;;10.77;45.98
74881;BME280;63427;49.654;6.596;2022-11-20T01:16:40;99188.34;;;10.69;46.42
74881;BME280;63427;49.654;6.596;2022-11-20T01:19:06;99187.92;;;10.39;46.74
74881;BME280;63427;49.654;6.596;2022-11-20T01:21:31;99187.23;;;10.85;46.27
74881;BME280;63427;49.654;6.596;2022-11-20T01:23:55;99188.25;;;10.53;46.47
74881;BME280;63427;49.654;6.596;2022-11-20T01:26:23;99185.91;;;10.44;46.58
74881;BME280;63427;49.654;6.596;2022-11-20T01:28:47;99185.69;;;10.88;45.97
74881;BME280;63427;49.654;6.596;2022-11-20T01:31:13;99184.08;;;10.96;45.74
74881;BME280;63427;49.654;6.596;2022-11-20T01:33:37;99185.96;;;10.74;45.69
74881;BME280;63427;49.654;6.596;2022-11-20T01:36:05;99184.33;;;11.08;45.32
74881;BME280;63427;49.654;6.596;2022-11-20T01:38:28;99185.97;;;10.94;45.40
74881;BME280;63427;49.654;6.596;2022-11-20T01:40:55;99185.30;;;10.92;45.70
74881;BME280;63427;49.654;6.596;2022-11-20T01:43:19;99187.82;;;10.59;46.51
74881;BME280;63427;49.654;6.596;2022-11-20T01:45:59;99192.13;;;10.65;46.14
74881;BME280;63427;49.654;6.596;2022-11-20T01:48:10;99189.46;;;10.85;45.85
74881;BME280;63427;49.654;6.596;2022-11-20T01:50:35;99187.97;;;10.99;45.94
74881;BME280;63427;49.654;6.596;2022-11-20T01:53:05;99187.33;;;10.81;46.06
74881;BME280;63427;49.654;6.596;2022-11-20T01:55:29;99184.84;;;10.99;45.71
74881;BME280;63427;49.654;6.596;2022-11-20T01:57:52;99186.41;;;10.78;46.04
74881;BME280;63427;49.654;6.596;2022-11-20T02:00:19;99185.10;;;11.21;45.78
74881;BME280;63427;49.654;6.596;2022-11-20T02:02:45;99189.67;;;10.49;46.02
74881;BME280;63427;49.654;6.596;2022-11-20T02:05:16;99188.21;;;10.53;47.02
74881;BME280;63427;49.654;6.596;2022-11-20T02:07:34;99190.82;;;10.61;46.95
74881;BME280;63427;49.654;6.596;2022-11-20T02:09:59;99192.73;;;10.87;46.52
74881;BME280;63427;49.654;6.596;2022-11-20T02:12:25;99196.81;;;11.00;46.38
74881;BME280;63427;49.654;6.596;2022-11-20T02:14:50;99192.65;;;10.49;46.69
74881;BME280;63427;49.654;6.596;2022-11-20T02:17:16;99189.84;;;10.41;46.96
74881;BME280;63427;49.654;6.596;2022-11-20T02:19:41;99182.44;;;10.42;47.77
74881;BME280;63427;49.654;6.596;2022-11-20T02:22:10;99186.24;;;10.59;47.03
74881;BME280;63427;49.654;6.596;2022-11-20T02:24:32;99185.10;;;11.05;46.42
74881;BME280;63427;49.654;6.596;2022-11-20T02:27:02;99187.64;;;10.72;46.42
74881;BME280;63427;49.654;6.596;2022-11-20T02:29:26;99180.18;;;11.14;45.91
74881;BME280;63427;49.654;6.596;2022-11-20T02:31:50;99177.08;;;10.72;46.54
74881;BME280;63427;49.654;6.596;2022-11-20T02:34:15;99173.34;;;11.19;45.90
74881;BME280;63427;49.654;6.596;2022-11-20T02:36:42;99176.64;;;11.06;45.80
74881;BME280;63427;49.654;6.596;2022-11-20T02:39:06;99180.53;;;11.46;45.54
74881;BME280;63427;49.654;6.596;2022-11-20T02:41:33;99174.94;;;11.01;45.74
74881;BME280;63427;49.654;6.596;2022-11-20T02:43:57;99170.99;;;11.15;45.73
74881;BME280;63427;49.654;6.596;2022-11-20T02:46:23;99167.94;;;10.91;45.85
74881;BME280;63427;49.654;6.596;2022-11-20T02:48:48;99168.20;;;10.86;46.03
74881;BME280;63427;49.654;6.596;2022-11-20T02:51:14;99168.05;;;11.07;45.40
74881;BME280;63427;49.654;6.596;2022-11-20T02:53:39;99168.01;;;10.99;45.19
74881;BME280;63427;49.654;6.596;2022-11-20T02:56:06;99171.52;;;11.34;44.99
74881;BME280;63427;49.654;6.596;2022-11-20T02:58:30;99173.49;;;11.10;45.04
74881;BME280;63427;49.654;6.596;2022-11-20T03:00:55;99172.55;;;10.86;45.35
74881;BME280;63427;49.654;6.596;2022-11-20T03:03:21;99171.50;;;11.19;45.02
74881;BME280;63427;49.654;6.596;2022-11-20T03:05:46;99171.68;;;10.97;45.24
74881;BME280;63427;49.654;6.596;2022-11-20T03:08:12;99168.83;;;11.39;45.39
74881;BME280;63427;49.654;6.596;2022-11-20T03:10:37;99168.06;;;11.27;45.08
74881;BME280;63427;49.654;6.596;2022-11-20T03:13:02;99166.13;;;10.63;45.94
74881;BME280;63427;49.654;6.596;2022-11-20T03:15:28;99172.11;;;10.94;45.22
74881;BME280;63427;49.654;6.596;2022-11-20T03:17:54;99165.67;;;11.20;45.55
74881;BME280;63427;49.654;6.596;2022-11-20T03:20:19;99162.79;;;10.94;45.04
74881;BME280;63427;49.654;6.596;2022-11-20T03:22:45;99164.17;;;11.17;44.89
74881;BME280;63427;49.654;6.596;2022-11-20T03:25:10;99163.35;;;11.11;44.89
74881;BME280;63427;49.654;6.596;2022-11-20T03:27:36;99163.19;;;11.25;45.24
74881;BME280;63427;49.654;6.596;2022-11-20T03:30:02;99159.96;;;11.18;45.08
74881;BME280;63427;49.654;6.596;2022-11-20T03:32:26;99157.12;;;11.22;45.17
74881;BME280;63427;49.654;6.596;2022-11-20T03:34:52;99155.49;;;11.28;45.02
74881;BME280;63427;49.654;6.596;2022-11-20T03:37:18;99152.68;;;10.82;45.34
74881;BME280;63427;49.654;6.596;2022-11-20T03:39:43;99152.64;;;11.09;45.22
74881;BME280;63427;49.654;6.596;2022-11-20T03:42:09;99149.43;;;10.79;45.31
74881;BME280;63427;49.654;6.596;2022-11-20T03:44:35;99149.48;;;10.47;46.25
74881;BME280;63427;49.654;6.596;2022-11-20T03:47:00;99148.06;;;10.83;45.85
74881;BME280;63427;49.654;6.596;2022-11-20T03:49:25;99142.57;;;9.81;47.56
74881;BME280;63427;49.654;6.596;2022-11-20T03:51:51;99144.77;;;10.81;46.34
74881;BME280;63427;49.654;6.596;2022-11-20T03:54:17;99146.85;;;10.75;46.20
74881;BME280;63427;49.654;6.596;2022-11-20T03:56:42;99147.67;;;10.38;46.78
74881;BME280;63427;49.654;6.596;2022-11-20T03:59:10;99145.90;;;10.98;46.05
74881;BME280;63427;49.654;6.596;2022-11-20T04:01:35;99145.70;;;10.43;46.34
74881;BME280;63427;49.654;6.596;2022-11-20T04:03:59;99145.15;;;10.88;45.93
74881;BME280;63427;49.654;6.596;2022-11-20T04:06:27;99147.69;;;10.79;45.78
74881;BME280;63427;49.654;6.596;2022-11-20T04:08:51;99148.97;;;10.79;46.29
74881;BME280;63427;49.654;6.596;2022-11-20T04:11:18;99152.55;;;10.79;45.97
74881;BME280;63427;49.654;6.596;2022-11-20T04:13:42;99147.95;;;10.43;45.95
74881;BME280;63427;49.654;6.596;2022-11-20T04:16:08;99148.31;;;10.94;45.89
74881;BME280;63427;49.654;6.596;2022-11-20T04:18:33;99150.75;;;9.51;48.03
74881;BME280;63427;49.654;6.596;2022-11-20T04:20:58;99154.91;;;10.46;46.97
74881;BME280;63427;49.654;6.596;2022-11-20T04:23:24;99159.51;;;10.45;46.45
74881;BME280;63427;49.654;6.596;2022-11-20T04:25:49;99157.66;;;10.47;46.37
74881;BME280;63427;49.654;6.596;2022-11-20T04:28:15;99152.64;;;10.27;47.30
74881;BME280;63427;49.654;6.596;2022-11-20T04:30:40;99157.28;;;10.48;46.66
74881;BME280;63427;49.654;6.596;2022-11-20T04:33:06;99151.83;;;10.58;46.97
74881;BME280;63427;49.654;6.596;2022-11-20T04:35:34;99153.36;;;10.84;46.44
74881;BME280;63427;49.654;6.596;2022-11-20T04:37:57;99151.83;;;9.99;47.26
74881;BME280;63427;49.654;6.596;2022-11-20T04:40:23;99149.58;;;10.45;46.38
74881;BME280;63427;49.654;6.596;2022-11-20T04:42:48;99145.90;;;10.76;46.35
74881;BME280;63427;49.654;6.596;2022-11-20T04:45:14;99147.20;;;10.81;45.85
74881;BME280;63427;49.654;6.596;2022-11-20T04:47:39;99149.69;;;10.86;45.72
74881;BME280;63427;49.654;6.596;2022-11-20T04:50:06;99152.79;;;10.41;46.33
74881;BME280;63427;49.654;6.596;2022-11-20T04:52:31;99153.72;;;10.29;46.44
74881;BME280;63427;49.654;6.596;2022-11-20T04:54:56;99153.07;;;10.80;46.13
74881;BME280;63427;49.654;6.596;2022-11-20T04:57:21;99152.42;;;10.37;46.26
74881;BME280;63427;49.654;6.596;2022-11-20T04:59:47;99156.75;;;10.46;46.16
74881;BME280;63427;49.654;6.596;2022-11-20T05:02:12;99155.73;;;10.63;45.99
74881;BME280;63427;49.654;6.596;2022-11-20T05:04:38;99155.63;;;10.59;46.46
74881;BME280;63427;49.654;6.596;2022-11-20T05:07:04;99155.11;;;10.50;46.34
74881;BME280;63427;49.654;6.596;2022-11-20T05:09:30;99152.84;;;10.46;46.02
74881;BME280;63427;49.654;6.596;2022-11-20T05:11:55;99152.66;;;11.01;45.88
74881;BME280;63427;49.654;6.596;2022-11-20T05:14:20;99153.50;;;10.08;46.85
74881;BME280;63427;49.654;6.596;2022-11-20T05:16:46;99151.99;;;10.93;45.90
74881;BME280;63427;49.654;6.596;2022-11-20T05:19:12;99154.13;;;10.47;46.09
74881;BME280;63427;49.654;6.596;2022-11-20T05:21:37;99156.85;;;10.81;46.05
74881;BME280;63427;49.654;6.596;2022-11-20T05:24:03;99156.09;;;10.69;46.13
74881;BME280;63427;49.654;6.596;2022-11-20T05:26:28;99158.77;;;10.30;46.05
74881;BME280;63427;49.654;6.596;2022-11-20T05:28:54;99156.97;;;10.29;46.88
74881;BME280;63427;49.654;6.596;2022-11-20T05:31:21;99157.69;;;10.80;45.80
74881;BME280;63427;49.654;6.596;2022-11-20T05:33:45;99156.29;;;10.28;46.42
74881;BME280;63427;49.654;6.596;2022-11-20T05:36:12;99157.10;;;10.54;46.32
74881;BME280;63427;49.654;6.596;2022-11-20T05:38:36;99164.32;;;10.27;45.85
74881;BME280;63427;49.654;6.596;2022-11-20T05:41:06;99160.23;;;10.79;45.50
74881;BME280;63427;49.654;6.596;2022-11-20T05:43:26;99161.12;;;10.65;45.74
74881;BME280;63427;49.654;6.596;2022-11-20T05:45:53;99159.41;;;10.44;46.55
74881;BME280;63427;49.654;6.596;2022-11-20T05:48:17;99161.24;;;10.88;45.69
74881;BME280;63427;49.654;6.596;2022-11-20T05:50:43;99166.90;;;10.71;46.02
74881;BME280;63427;49.654;6.596;2022-11-20T05:53:09;99168.90;;;10.34;46.33
74881;BME280;63427;49.654;6.596;2022-11-20T05:55:34;99168.94;;;10.45;46.33
74881;BME280;63427;49.654;6.596;2022-11-20T05:57:59;99172.18;;;10.63;45.89
74881;BME280;63427;49.654;6.596;2022-11-20T06:00:24;99169.80;;;10.64;46.25
74881;BME280;63427;49.654;6.596;2022-11-20T06:02:50;99168.45;;;10.54;46.38
74881;BME280;63427;49.654;6.596;2022-11-20T06:05:15;99166.73;;;10.40;46.48
74881;BME280;63427;49.654;6.596;2022-11-20T06:07:41;99162.65;;;10.61;46.19
74881;BME280;63427;49.654;6.596;2022-11-20T06:10:07;99162.28;;;10.44;46.05
74881;BME280;63427;49.654;6.596;2022-11-20T06:12:32;99163.76;;;10.51;45.96
74881;BME280;63427;49.654;6.596;2022-11-20T06:14:57;99160.78;;;10.52;46.13
74881;BME280;63427;49.654;6.596;2022-11-20T06:17:24;99158.05;;;9.85;46.87
74881;BME280;63427;49.654;6.596;2022-11-20T06:19:48;99161.42;;;10.34;46.07
74881;BME280;63427;49.654;6.596;2022-11-20T06:22:14;99165.47;;;10.36;45.60
74881;BME280;63427;49.654;6.596;2022-11-20T06:24:39;99163.37;;;10.48;45.75
74881;BME280;63427;49.654;6.596;2022-11-20T06:27:05;99155.96;;;9.56;47.04
74881;BME280;63427;49.654;6.596;2022-11-20T06:29:31;99158.55;;;9.87;47.06
74881;BME280;63427;49.654;6.596;2022-11-20T06:31:56;99162.31;;;10.35;45.65
74881;BME280;63427;49.654;6.596;2022-11-20T06:34:21;99160.83;;;10.66;45.45
74881;BME280;63427;49.654;6.596;2022-11-20T06:36:47;99162.91;;;10.64;45.55
74881;BME280;63427;49.654;6.596;2022-11-20T06:39:12;99164.14;;;10.33;46.37
74881;BME280;63427;49.654;6.596;2022-11-20T06:41:38;99165.46;;;10.02;46.76
74881;BME280;63427;49.654;6.596;2022-11-20T06:44:04;99166.30;;;10.41;46.01
74881;BME280;63427;49.654;6.596;2022-11-20T06:46:29;99173.80;;;10.70;45.52
74881;BME280;63427;49.654;6.596;2022-11-20T06:48:54;99173.36;;;10.63;45.51
74881;BME280;63427;49.654;6.596;2022-11-20T06:51:19;99178.79;;;10.63;45.05
74881;BME280;63427;49.654;6.596;2022-11-20T06:53:45;99180.58;;;10.72;45.56
74881;BME280;63427;49.654;6.596;2022-11-20T06:56:11;99182.20;;;10.55;45.01
74881;BME280;63427;49.654;6.596;2022-11-20T06:58:36;99187.59;;;10.53;44.99
74881;BME280;63427;49.654;6.596;2022-11-20T07:01:03;99186.04;;;10.89;44.73
74881;BME280;63427;49.654;6.596;2022-11-20T07:03:27;99190.80;;;10.62;44.85
74881;BME280;63427;49.654;6.596;2022-11-20T07:05:54;99191.80;;;10.86;44.63
74881;BME280;63427;49.654;6.596;2022-11-20T07:08:18;99190.90;;;10.61;45.56
74881;BME280;63427;49.654;6.596;2022-11-20T07:10:43;99192.18;;;10.38;45.18
74881;BME280;63427;49.654;6.596;2022-11-20T07:13:09;99193.81;;;9.96;46.15
74881;BME280;63427;49.654;6.596;2022-11-20T07:15:34;99196.91;;;10.30;45.89
74881;BME280;63427;49.654;6.596;2022-11-20T07:18:00;99205.24;;;10.80;44.97
74881;BME280;63427;49.654;6.596;2022-11-20T07:20:26;99205.84;;;10.75;45.56
74881;BME280;63427;49.654;6.596;2022-11-20T07:22:53;99207.47;;;10.72;45.62
74881;BME280;63427;49.654;6.596;2022-11-20T07:25:16;99208.11;;;10.82;45.14
74881;BME280;63427;49.654;6.596;2022-11-20T07:27:41;99210.79;;;10.89;45.02
74881;BME280;63427;49.654;6.596;2022-11-20T07:30:08;99212.52;;;10.94;45.08
74881;BME280;63427;49.654;6.596;2022-11-20T07:32:32;99211.41;;;10.77;45.12
74881;BME280;63427;49.654;6.596;2022-11-20T07:34:58;99210.89;;;10.73;44.83
74881;BME280;63427;49.654;6.596;2022-11-20T07:37:24;99215.08;;;10.57;44.81
74881;BME280;63427;49.654;6.596;2022-11-20T07:39:49;99219.19;;;10.37;45.24
74881;BME280;63427;49.654;6.596;2022-11-20T07:42:15;99217.77;;;10.35;45.46
74881;BME280;63427;49.654;6.596;2022-11-20T07:44:40;99216.54;;;10.33;45.53
74881;BME280;63427;49.654;6.596;2022-11-20T07:47:06;99216.79;;;10.38;45.49
74881;BME280;63427;49.654;6.596;2022-11-20T07:49:32;99215.10;;;9.73;46.20
74881;BME280;63427;49.654;6.596;2022-11-20T07:51:57;99217.80;;;9.54;46.74
74881;BME280;63427;49.654;6.596;2022-11-20T07:54:24;99222.40;;;9.89;46.33
74881;BME280;63427;49.654;6.596;2022-11-20T07:56:49;99223.94;;;9.88;46.33
74881;BME280;63427;49.654;6.596;2022-11-20T07:59:15;99227.26;;;10.26;45.49
74881;BME280;63427;49.654;6.596;2022-11-20T08:01:40;99233.30;;;10.32;45.21
74881;BME280;63427;49.654;6.596;2022-11-20T08:04:06;99237.32;;;10.17;45.75
74881;BME280;63427;49.654;6.596;2022-11-20T08:06:31;99241.51;;;10.29;45.59
74881;BME280;63427;49.654;6.596;2022-11-20T08:08:57;99248.03;;;10.59;44.87
74881;BME280;63427;49.654;6.596;2022-11-20T08:11:22;99241.85;;;10.64;44.85
74881;BME280;63427;49.654;6.596;2022-11-20T08:13:48;99242.81;;;10.63;45.02
74881;BME280;63427;49.654;6.596;2022-11-20T08:16:13;99247.40;;;10.53;44.65
74881;BME280;63427;49.654;6.596;2022-11-20T08:18:39;99245.83;;;10.68;44.26
74881;BME280;63427;49.654;6.596;2022-11-20T08:21:05;99249.79;;;10.74;44.31
74881;BME280;63427;49.654;6.596;2022-11-20T08:23:30;99246.39;;;10.47;45.30
74881;BME280;63427;49.654;6.596;2022-11-20T08:25:55;99251.12;;;10.34;45.66
74881;BME280;63427;49.654;6.596;2022-11-20T08:28:21;99249.53;;;10.69;44.72
74881;BME280;63427;49.654;6.596;2022-11-20T08:30:47;99252.42;;;10.65;44.80
74881;BME280;63427;49.654;6.596;2022-11-20T08:33:12;99255.56;;;10.67;44.81
74881;BME280;63427;49.654;6.596;2022-11-20T08:35:38;99254.53;;;10.79;44.51
74881;BME280;63427;49.654;6.596;2022-11-20T08:38:04;99260.99;;;10.56;45.32
74881;BME280;63427;49.654;6.596;2022-11-20T08:40:29;99266.01;;;10.80;44.37
74881;BME280;63427;49.654;6.596;2022-11-20T08:42:54;99265.83;;;10.84;44.56
74881;BME280;63427;49.654;6.596;2022-11-20T08:45:20;99267.86;;;10.64;45.19
74881;BME280;63427;49.654;6.596;2022-11-20T08:47:45;99264.86;;;10.49;45.41
74881;BME280;63427;49.654;6.596;2022-11-20T08:50:12;99261.95;;;9.80;46.78
74881;BME280;63427;49.654;6.596;2022-11-20T08:52:37;99266.74;;;10.72;45.53
74881;BME280;63427;49.654;6.596;2022-11-20T08:55:04;99264.66;;;10.75;45.04
74881;BME280;63427;49.654;6.596;2022-11-20T08:57:28;99266.67;;;10.84;44.90
74881;BME280;63427;49.654;6.596;2022-11-20T08:59:54;99265.28;;;10.65;45.06
74881;BME280;63427;49.654;6.596;2022-11-20T09:02:19;99260.22;;;10.76;45.02
74881;BME280;63427;49.654;6.596;2022-11-20T09:04:45;99261.65;;;11.00;45.03
74881;BME280;63427;49.654;6.596;2022-11-20T09:07:10;99261.12;;;11.17;45.01
74881;BME280;63427;49.654;6.596;2022-11-20T09:09:35;99261.68;;;10.81;45.05
74881;BME280;63427;49.654;6.596;2022-11-20T09:12:01;99263.07;;;11.38;44.73
74881;BME280;63427;49.654;6.596;2022-11-20T09:14:27;99265.70;;;10.61;44.62
74881;BME280;63427;49.654;6.596;2022-11-20T09:16:52;99264.27;;;10.96;44.92
74881;BME280;63427;49.654;6.596;2022-11-20T09:19:18;99269.80;;;11.00;45.15
74881;BME280;63427;49.654;6.596;2022-11-20T09:21:43;99270.40;;;11.07;45.04
74881;BME280;63427;49.654;6.596;2022-11-20T09:24:09;99274.69;;;11.28;44.66
74881;BME280;63427;49.654;6.596;2022-11-20T09:26:34;99270.18;;;10.75;44.86
74881;BME280;63427;49.654;6.596;2022-11-20T09:28:59;99268.65;;;10.88;44.59
74881;BME280;63427;49.654;6.596;2022-11-20T09:31:25;99272.84;;;11.31;45.07
74881;BME280;63427;49.654;6.596;2022-11-20T09:33:50;99275.30;;;10.82;44.95
74881;BME280;63427;49.654;6.596;2022-11-20T09:36:16;99274.14;;;10.78;45.64
74881;BME280;63427;49.654;6.596;2022-11-20T09:38:41;99269.67;;;10.91;44.95
74881;BME280;63427;49.654;6.596;2022-11-20T09:41:22;99267.76;;;10.87;44.65
74881;BME280;63427;49.654;6.596;2022-11-20T09:43:44;99267.06;;;11.16;44.24
74881;BME280;63427;49.654;6.596;2022-11-20T09:46:05;99267.03;;;11.48;43.53
74881;BME280;63427;49.654;6.596;2022-11-20T09:48:35;99266.13;;;11.28;43.08
74881;BME280;63427;49.654;6.596;2022-11-20T09:50:53;99267.64;;;11.02;42.22
74881;BME280;63427;49.654;6.596;2022-11-20T09:53:23;99263.22;;;11.63;42.54
74881;BME280;63427;49.654;6.596;2022-11-20T09:55:41;99259.96;;;11.20;43.15
74881;BME280;63427;49.654;6.596;2022-11-20T09:58:12;99260.78;;;10.91;42.35
74881;BME280;63427;49.654;6.596;2022-11-20T10:00:32;99260.41;;;11.63;42.48
74881;BME280;63427;49.654;6.596;2022-11-20T10:03:01;99260.23;;;11.69;42.12
74881;BME280;63427;49.654;6.596;2022-11-20T10:05:26;99260.00;;;11.76;42.03
74881;BME280;63427;49.654;6.596;2022-11-20T10:07:52;99252.30;;;11.86;41.21
74881;BME280;63427;49.654;6.596;2022-11-20T10:10:15;99251.90;;;11.94;40.27
74881;BME280;63427;49.654;6.596;2022-11-20T10:12:49;99250.04;;;11.56;41.52
74881;BME280;63427;49.654;6.596;2022-11-20T10:15:12;99248.86;;;11.73;41.78
74881;BME280;63427;49.654;6.596;2022-11-20T10:17:46;99244.81;;;11.85;41.70
74881;BME280;63427;49.654;6.596;2022-11-20T10:20:08;99240.43;;;12.15;41.50
74881;BME280;63427;49.654;6.596;2022-11-20T10:22:32;99231.65;;;11.55;41.06
74881;BME280;63427;49.654;6.596;2022-11-20T10:24:53;99232.05;;;11.61;40.35
74881;BME280;63427;49.654;6.596;2022-11-20T10:27:25;99232.30;;;11.98;40.14
74881;BME280;63427;49.654;6.596;2022-11-20T10:29:42;99231.09;;;11.84;39.89
74881;BME280;63427;49.654;6.596;2022-11-20T10:32:09;99233.93;;;11.82;40.11
74881;BME280;63427;49.654;6.596;2022-11-20T10:34:35;99231.63;;;11.50;40.05
74881;BME280;63427;49.654;6.596;2022-11-20T10:36:57;99228.90;;;11.82;39.79
74881;BME280;63427;49.654;6.596;2022-11-20T10:39:26;99227.01;;;11.32;40.52
74881;BME280;63427;49.654;6.596;2022-11-20T10:41:49;99223.17;;;11.27;41.37
74881;BME280;63427;49.654;6.596;2022-11-20T10:44:14;99223.17;;;11.52;41.48
74881;BME280;63427;49.654;6.596;2022-11-20T10:46:40;99222.35;;;11.33;42.03
74881;BME280;63427;49.654;6.596;2022-11-20T10:49:09;99220.71;;;11.68;40.84
74881;BME280;63427;49.654;6.596;2022-11-20T10:51:35;99216.14;;;11.68;41.00
74881;BME280;63427;49.654;6.596;2022-11-20T10:53:59;99215.07;;;11.32;40.73
74881;BME280;63427;49.654;6.596;2022-11-20T10:56:22;99215.65;;;10.88;41.10
74881;BME280;63427;49.654;6.596;2022-11-20T10:58:53;99211.48;;;10.99;41.34
74881;BME280;63427;49.654;6.596;2022-11-20T11:01:14;99213.54;;;11.19;40.71
74881;BME280;63427;49.654;6.596;2022-11-20T11:03:36;99212.99;;;11.34;40.98
74881;BME280;63427;49.654;6.596;2022-11-20T11:06:06;99208.80;;;11.29;41.06
74881;BME280;63427;49.654;6.596;2022-11-20T11:08:29;99206.63;;;11.68;40.52
74881;BME280;63427;49.654;6.596;2022-11-20T11:10:54;99199.73;;;11.66;39.14
74881;BME280;63427;49.654;6.596;2022-11-20T11:13:21;99200.66;;;12.01;39.55
74881;BME280;63427;49.654;6.596;2022-11-20T11:15:44;99196.63;;;12.11;38.64
74881;BME280;63427;49.654;6.596;2022-11-20T11:18:10;99192.20;;;12.25;38.37
74881;BME280;63427;49.654;6.596;2022-11-20T11:20:34;99187.67;;;12.24;37.82
74881;BME280;63427;49.654;6.596;2022-11-20T11:23:00;99186.40;;;12.45;38.33
74881;BME280;63427;49.654;6.596;2022-11-20T11:25:28;99181.65;;;12.64;38.58
74881;BME280;63427;49.654;6.596;2022-11-20T11:27:52;99172.56;;;12.68;36.95
74881;BME280;63427;49.654;6.596;2022-11-20T11:30:18;99171.51;;;13.27;37.38
74881;BME280;63427;49.654;6.596;2022-11-20T11:32:41;99177.13;;;12.92;37.29
74881;BME280;63427;49.654;6.596;2022-11-20T11:37:34;99182.42;;;12.89;37.73
74881;BME280;63427;49.654;6.596;2022-11-20T11:39:58;99176.32;;;13.02;37.16
74881;BME280;63427;49.654;6.596;2022-11-20T11:42:23;99171.41;;;12.99;37.59
74881;BME280;63427;49.654;6.596;2022-11-20T11:44:48;99167.38;;;12.76;37.35
74881;BME280;63427;49.654;6.596;2022-11-20T11:47:20;99162.40;;;13.53;36.64
74881;BME280;63427;49.654;6.596;2022-11-20T11:49:39;99160.39;;;13.33;35.48
74881;BME280;63427;49.654;6.596;2022-11-20T11:52:10;99149.49;;;14.21;34.85
74881;BME280;63427;49.654;6.596;2022-11-20T11:54:35;99157.33;;;14.22;34.53
74881;BME280;63427;49.654;6.596;2022-11-20T11:56:56;99153.02;;;14.13;34.58
74881;BME280;63427;49.654;6.596;2022-11-20T11:59:26;99145.61;;;14.36;33.45
74881;BME280;63427;49.654;6.596;2022-11-20T12:01:51;99141.20;;;13.58;33.98
74881;BME280;63427;49.654;6.596;2022-11-20T12:04:19;99137.13;;;14.52;34.31
74881;BME280;63427;49.654;6.596;2022-11-20T12:06:39;99140.61;;;14.23;33.66
74881;BME280;63427;49.654;6.596;2022-11-20T12:09:05;99141.63;;;14.00;34.06
74881;BME280;63427;49.654;6.596;2022-11-20T12:11:33;99139.02;;;13.03;35.18
74881;BME280;63427;49.654;6.596;2022-11-20T12:13:55;99137.44;;;13.18;35.38
74881;BME280;63427;49.654;6.596;2022-11-20T12:16:20;99132.83;;;13.63;35.10
74881;BME280;63427;49.654;6.596;2022-11-20T12:18:46;99129.50;;;13.90;33.80
74881;BME280;63427;49.654;6.596;2022-11-20T12:21:18;99128.37;;;13.14;35.07
74881;BME280;63427;49.654;6.596;2022-11-20T12:23:43;99128.01;;;13.65;34.40
74881;BME280;63427;49.654;6.596;2022-11-20T12:26:05;99127.67;;;13.09;34.94
74881;BME280;63427;49.654;6.596;2022-11-20T12:28:34;99127.03;;;13.37;35.38
74881;BME280;63427;49.654;6.596;2022-11-20T12:31:02;99126.18;;;13.64;35.36
74881;BME280;63427;49.654;6.596;2022-11-20T12:33:27;99130.41;;;13.85;35.11
74881;BME280;63427;49.654;6.596;2022-11-20T12:35:50;99119.34;;;13.61;34.79
74881;BME280;63427;49.654;6.596;2022-11-20T12:40:38;99117.42;;;13.42;35.44
74881;BME280;63427;49.654;6.596;2022-11-20T12:43:06;99122.43;;;11.51;37.86
74881;BME280;63427;49.654;6.596;2022-11-20T12:48:00;99119.16;;;10.79;38.47
74881;BME280;63427;49.654;6.596;2022-11-20T12:50:21;99105.70;;;11.64;37.33
74881;BME280;63427;49.654;6.596;2022-11-20T12:52:46;99102.49;;;11.29;37.67
74881;BME280;63427;49.654;6.596;2022-11-20T12:55:16;99101.15;;;11.10;38.58
74881;BME280;63427;49.654;6.596;2022-11-20T12:57:37;99099.69;;;11.38;38.16